createdAt,value
2022-12-23T00:01:08.928Z,1.38
2022-12-23T00:03:35.628Z,1.35
2022-12-23T00:06:11.899Z,1.45
2022-12-23T00:08:38.562Z,1.65
2022-12-23T00:11:06.569Z,1.43
2022-12-23T00:13:33.268Z,1.31
2022-12-23T00:16:03.326Z,1.42
2022-12-23T00:18:30.080Z,1.65
2022-12-23T00:21:09.836Z,1.55
2022-12-23T00:23:37.708Z,1.53
2022-12-23T00:26:04.350Z,1.51
2022-12-23T00:28:31.038Z,1.38
2022-12-23T00:31:05.072Z,1.52
2022-12-23T00:33:42.046Z,1.46
2022-12-23T00:36:15.416Z,1.76
2022-12-23T00:38:42.071Z,1.57
2022-12-23T00:41:16.331Z,1.92
2022-12-23T00:43:42.972Z,1.74
2022-12-23T00:46:09.671Z,1.61
2022-12-23T00:48:36.386Z,1.73
2022-12-23T00:51:03.131Z,2.61
2022-12-23T00:53:29.914Z,2.67
2022-12-23T00:55:56.572Z,2.02
2022-12-23T00:58:23.231Z,1.43
2022-12-23T01:00:49.892Z,1.63
2022-12-23T01:03:16.623Z,1.80
2022-12-23T01:05:43.336Z,1.72
2022-12-23T01:08:11.582Z,1.41
2022-12-23T01:10:39.016Z,1.37
2022-12-23T01:13:05.655Z,1.68
2022-12-23T01:15:32.329Z,1.45
2022-12-23T01:17:58.937Z,1.63
2022-12-23T01:20:25.547Z,1.59
2022-12-23T01:22:52.180Z,1.32
2022-12-23T01:25:18.866Z,1.45
2022-12-23T01:27:45.490Z,1.78
2022-12-23T01:30:12.267Z,1.40
2022-12-23T01:32:38.879Z,1.83
2022-12-23T01:35:05.745Z,1.75
2022-12-23T01:37:32.396Z,1.63
2022-12-23T01:39:59.071Z,1.68
2022-12-23T01:42:25.714Z,1.46
2022-12-23T01:44:59.765Z,1.59
2022-12-23T01:47:34.987Z,1.34
2022-12-23T01:50:37.112Z,1.26
2022-12-23T01:53:09.331Z,1.36
2022-12-23T01:55:39.057Z,1.41
2022-12-23T01:58:12.106Z,1.27
2022-12-23T02:00:39.199Z,1.26
2022-12-23T02:03:05.992Z,1.38
2022-12-23T02:05:32.753Z,1.36
2022-12-23T02:07:59.479Z,1.46
2022-12-23T02:10:28.359Z,1.21
2022-12-23T02:13:00.321Z,1.29
2022-12-23T02:15:45.019Z,1.33
2022-12-23T02:18:20.664Z,1.15
2022-12-23T02:21:07.374Z,1.23
2022-12-23T02:23:36.859Z,1.14
2022-12-23T02:26:09.750Z,1.16
2022-12-23T02:29:03.902Z,1.19
2022-12-23T02:31:43.058Z,1.44
2022-12-23T02:34:19.715Z,1.23
2022-12-23T02:37:13.598Z,1.24
2022-12-23T02:39:54.041Z,1.25
2022-12-23T02:42:25.808Z,1.28
2022-12-23T02:45:11.086Z,1.20
2022-12-23T02:47:47.580Z,1.27
2022-12-23T02:50:19.783Z,1.34
2022-12-23T02:52:46.833Z,1.25
2022-12-23T02:55:15.238Z,1.30
2022-12-23T02:57:44.072Z,1.22
2022-12-23T03:00:11.148Z,1.25
2022-12-23T03:02:39.431Z,1.11
2022-12-23T03:05:06.840Z,1.35
2022-12-23T03:07:41.511Z,1.29
2022-12-23T03:10:28.649Z,1.43
2022-12-23T03:13:09.089Z,1.37
2022-12-23T03:15:59.434Z,1.15
2022-12-23T03:18:38.029Z,1.49
2022-12-23T03:21:24.892Z,1.77
2022-12-23T03:23:55.792Z,1.39
2022-12-23T03:26:27.621Z,1.34
2022-12-23T03:28:55.748Z,1.40
2022-12-23T03:31:24.728Z,1.48
2022-12-23T03:34:25.200Z,1.33
2022-12-23T03:36:52.671Z,1.58
2022-12-23T03:39:20.958Z,1.45
2022-12-23T03:41:57.856Z,1.42
2022-12-23T03:44:32.960Z,1.54
2022-12-23T03:47:07.609Z,1.57
2022-12-23T03:49:37.217Z,1.49
2022-12-23T03:52:18.891Z,1.58
2022-12-23T03:54:53.544Z,1.85
2022-12-23T03:57:20.721Z,1.52
2022-12-23T03:59:47.639Z,1.41
2022-12-23T04:02:35.541Z,1.73
2022-12-23T04:05:20.497Z,1.77
2022-12-23T04:08:10.461Z,1.92
2022-12-23T04:10:37.127Z,1.60
2022-12-23T04:13:03.757Z,1.63
2022-12-23T04:15:30.393Z,1.84
2022-12-23T04:17:57.104Z,1.98
2022-12-23T04:20:24.032Z,1.77
2022-12-23T04:22:50.630Z,1.56
2022-12-23T04:25:17.463Z,1.65
2022-12-23T04:27:44.117Z,1.53
2022-12-23T04:30:11.462Z,1.71
2022-12-23T04:32:38.102Z,1.73
2022-12-23T04:35:05.216Z,1.65
2022-12-23T04:37:31.806Z,1.69
2022-12-23T04:39:58.402Z,1.61
2022-12-23T04:42:24.980Z,1.63
2022-12-23T04:44:51.581Z,1.89
2022-12-23T04:47:18.422Z,1.38
2022-12-23T04:49:45.028Z,1.77
2022-12-23T04:52:11.657Z,2.49
2022-12-23T04:54:45.478Z,1.78
2022-12-23T04:57:12.832Z,1.47
2022-12-23T04:59:39.493Z,1.52
2022-12-23T05:02:06.404Z,1.46
2022-12-23T05:04:33.300Z,1.31
2022-12-23T05:06:59.946Z,1.25
2022-12-23T05:09:26.592Z,1.44
2022-12-23T05:11:53.264Z,1.34
2022-12-23T05:14:19.852Z,1.20
2022-12-23T05:16:46.490Z,1.48
2022-12-23T05:19:13.121Z,1.65
2022-12-23T05:21:39.713Z,1.33
2022-12-23T05:24:06.476Z,1.27
2022-12-23T05:26:33.061Z,1.37
2022-12-23T05:28:59.649Z,1.47
2022-12-23T05:31:26.253Z,1.82
2022-12-23T05:33:53.036Z,2.03
2022-12-23T05:36:19.772Z,1.63
2022-12-23T05:38:46.386Z,1.68
2022-12-23T05:41:13.023Z,1.67
2022-12-23T05:43:39.642Z,1.77
2022-12-23T05:46:06.368Z,1.65
2022-12-23T05:48:33.109Z,2.03
2022-12-23T05:50:59.732Z,1.91
2022-12-23T05:53:26.341Z,1.61
2022-12-23T05:55:53.002Z,1.82
2022-12-23T05:58:19.616Z,2.34
2022-12-23T06:00:46.213Z,1.89
2022-12-23T06:03:12.932Z,1.86
2022-12-23T06:05:40.404Z,1.88
2022-12-23T06:08:07.012Z,2.38
2022-12-23T06:10:33.662Z,2.34
2022-12-23T06:13:00.283Z,1.75
2022-12-23T06:15:26.948Z,1.83
2022-12-23T06:17:53.609Z,1.78
2022-12-23T06:20:21.112Z,2.08
2022-12-23T06:22:47.984Z,2.27
2022-12-23T06:25:14.830Z,1.95
2022-12-23T06:27:41.519Z,1.75
2022-12-23T06:30:08.743Z,1.84
2022-12-23T06:32:38.506Z,1.85
2022-12-23T06:35:06.766Z,2.19
2022-12-23T06:37:33.419Z,2.30
2022-12-23T06:40:00.117Z,2.23
2022-12-23T06:42:26.760Z,2.30
2022-12-23T06:44:53.414Z,2.21
2022-12-23T06:47:20.187Z,1.79
2022-12-23T06:49:46.826Z,1.90
2022-12-23T06:52:13.470Z,1.54
2022-12-23T06:54:40.076Z,1.39
2022-12-23T06:57:06.710Z,1.53
2022-12-23T06:59:33.372Z,1.53
2022-12-23T07:02:00.167Z,1.94
2022-12-23T07:04:27.028Z,1.48
2022-12-23T07:06:53.653Z,1.51
2022-12-23T07:09:20.290Z,1.74
2022-12-23T07:11:46.897Z,1.71
2022-12-23T07:14:13.562Z,1.55
2022-12-23T07:16:40.207Z,1.79
2022-12-23T07:19:07.983Z,2.16
2022-12-23T07:21:34.619Z,1.69
2022-12-23T07:24:01.269Z,1.85
2022-12-23T07:26:27.884Z,1.74
2022-12-23T07:28:54.490Z,1.86
2022-12-23T07:31:21.256Z,1.97
2022-12-23T07:33:47.936Z,2.06
2022-12-23T07:36:14.540Z,2.33
2022-12-23T07:38:41.158Z,2.15
2022-12-23T07:41:07.790Z,2.30
2022-12-23T07:43:34.431Z,2.46
2022-12-23T07:46:06.738Z,2.53
2022-12-23T07:48:33.411Z,2.69
2022-12-23T07:51:01.320Z,2.52
2022-12-23T07:53:28.027Z,3.91
2022-12-23T07:55:56.665Z,3.86
2022-12-23T07:58:23.748Z,4.76
2022-12-23T08:00:50.376Z,3.66
2022-12-23T08:03:17.169Z,3.08
2022-12-23T08:05:43.971Z,2.79
2022-12-23T08:08:10.586Z,3.06
2022-12-23T08:10:41.397Z,3.18
2022-12-23T08:13:11.116Z,3.02
2022-12-23T08:15:37.758Z,3.19
2022-12-23T08:18:04.368Z,3.57
2022-12-23T08:20:30.976Z,4.00
2022-12-23T08:22:57.611Z,4.09
2022-12-23T08:25:24.305Z,4.15
2022-12-23T08:27:51.160Z,3.29
2022-12-23T08:30:18.964Z,2.33
2022-12-23T08:32:46.818Z,3.22
2022-12-23T08:35:13.413Z,3.65
2022-12-23T08:37:40.064Z,3.66
2022-12-23T08:40:07.250Z,3.05
2022-12-23T08:42:33.928Z,2.88
2022-12-23T08:45:00.546Z,4.25
2022-12-23T08:47:27.238Z,3.65
2022-12-23T08:49:53.900Z,3.00
2022-12-23T08:52:20.546Z,2.13
2022-12-23T08:54:47.228Z,1.98
2022-12-23T08:57:13.967Z,1.75
2022-12-23T08:59:40.611Z,1.98
2022-12-23T09:02:09.825Z,1.61
2022-12-23T09:04:36.694Z,1.94
2022-12-23T09:07:03.390Z,2.19
2022-12-23T09:09:30.064Z,1.44
2022-12-23T09:11:56.662Z,2.21
2022-12-23T09:14:23.373Z,2.26
2022-12-23T09:16:50.854Z,1.88
2022-12-23T09:19:17.775Z,1.63
2022-12-23T09:21:44.413Z,1.52
2022-12-23T09:24:11.059Z,1.97
2022-12-23T09:26:37.788Z,1.92
2022-12-23T09:29:04.441Z,1.97
2022-12-23T09:31:36.502Z,1.83
2022-12-23T09:34:04.141Z,1.38
2022-12-23T09:36:30.726Z,1.56
2022-12-23T09:38:58.035Z,1.58
2022-12-23T09:41:43.999Z,1.63
2022-12-23T09:44:29.087Z,1.72
2022-12-23T09:46:58.200Z,2.06
2022-12-23T09:49:24.932Z,2.49
2022-12-23T09:51:52.370Z,2.59
2022-12-23T09:54:38.112Z,2.69
2022-12-23T09:57:32.656Z,2.25
2022-12-23T10:00:17.114Z,2.23
2022-12-23T10:03:01.067Z,2.53
2022-12-23T10:05:46.532Z,2.48
2022-12-23T10:08:33.162Z,2.67
2022-12-23T10:11:11.284Z,2.95
2022-12-23T10:13:39.587Z,2.96
2022-12-23T10:16:18.174Z,2.50
2022-12-23T10:18:59.875Z,2.47
2022-12-23T10:21:29.818Z,2.95
2022-12-23T10:23:56.389Z,3.30
2022-12-23T10:26:44.361Z,3.17
2022-12-23T10:29:19.385Z,3.13
2022-12-23T10:32:17.239Z,2.36
2022-12-23T10:35:02.247Z,2.91
2022-12-23T10:37:36.974Z,2.66
2022-12-23T10:40:28.371Z,2.15
2022-12-23T10:43:22.018Z,1.85
2022-12-23T10:45:49.858Z,2.06
2022-12-23T10:48:32.915Z,1.87
2022-12-23T10:51:17.709Z,1.67
2022-12-23T10:53:51.623Z,1.68
2022-12-23T10:56:18.453Z,1.69
2022-12-23T10:58:45.850Z,1.38
2022-12-23T11:01:21.750Z,1.91
2022-12-23T11:04:05.758Z,1.98
2022-12-23T11:06:37.129Z,1.43
2022-12-23T11:09:04.502Z,1.65
2022-12-23T11:11:58.554Z,2.07
2022-12-23T11:14:33.994Z,1.84
2022-12-23T11:17:00.671Z,1.47
2022-12-23T11:19:27.348Z,1.46
2022-12-23T11:21:55.239Z,1.58
2022-12-23T11:24:22.025Z,1.78
2022-12-23T11:27:02.658Z,1.84
2022-12-23T11:29:34.403Z,2.15
2022-12-23T11:32:02.265Z,1.76
2022-12-23T11:34:31.113Z,1.82
2022-12-23T11:37:01.856Z,1.90
2022-12-23T11:39:33.389Z,1.92
2022-12-23T11:42:15.952Z,2.28
2022-12-23T11:44:43.120Z,2.44
2022-12-23T11:47:33.507Z,2.49
2022-12-23T11:50:03.988Z,2.80
2022-12-23T11:52:31.280Z,2.72
2022-12-23T11:54:59.487Z,2.84
2022-12-23T11:57:38.135Z,2.93
2022-12-23T12:00:06.216Z,2.80
2022-12-23T12:02:44.785Z,2.80
2022-12-23T12:05:18.713Z,2.91
2022-12-23T12:07:45.336Z,3.16
2022-12-23T12:10:27.348Z,3.05
2022-12-23T12:12:58.981Z,3.26
2022-12-23T12:15:35.652Z,3.09
2022-12-23T12:18:02.296Z,3.41
2022-12-23T12:20:31.555Z,3.12
2022-12-23T12:23:02.163Z,3.00
2022-12-23T12:25:43.549Z,3.17
2022-12-23T12:28:22.562Z,3.33
2022-12-23T12:30:52.913Z,3.53
2022-12-23T12:33:23.361Z,3.52
2022-12-23T12:36:04.926Z,3.11
2022-12-23T12:38:32.016Z,2.86
2022-12-23T12:41:02.706Z,3.30
2022-12-23T12:43:31.008Z,3.13
2022-12-23T12:46:06.535Z,3.11
2022-12-23T12:48:45.198Z,3.21
2022-12-23T12:51:31.791Z,2.94
2022-12-23T12:54:26.191Z,3.29
2022-12-23T12:56:57.927Z,3.20
2022-12-23T12:59:37.488Z,3.29
2022-12-23T13:02:09.990Z,3.29
2022-12-23T13:04:59.593Z,3.24
2022-12-23T13:07:38.767Z,3.55
2022-12-23T13:10:34.266Z,3.15
2022-12-23T13:13:10.246Z,2.65
2022-12-23T13:15:51.969Z,2.54
2022-12-23T13:18:43.888Z,2.51
2022-12-23T13:21:17.724Z,3.01
2022-12-23T13:24:03.904Z,2.62
2022-12-23T13:26:44.486Z,1.90
2022-12-23T13:29:35.917Z,1.89
2022-12-23T13:32:47.490Z,2.03
2022-12-23T13:35:32.618Z,2.18
2022-12-23T13:38:18.917Z,2.09
2022-12-23T13:41:11.887Z,3.61
2022-12-23T13:43:49.178Z,2.44
2022-12-23T13:46:25.559Z,2.56
2022-12-23T13:49:13.811Z,3.25
2022-12-23T13:52:20.777Z,2.64
2022-12-23T13:55:08.976Z,2.51
2022-12-23T13:57:59.931Z,4.88
2022-12-23T14:00:29.451Z,4.05
2022-12-23T14:02:58.970Z,2.52
2022-12-23T14:05:32.607Z,2.39
2022-12-23T14:08:00.257Z,2.62
2022-12-23T14:10:26.912Z,2.40
2022-12-23T14:12:59.463Z,2.34
2022-12-23T14:15:47.448Z,2.29
2022-12-23T14:18:26.904Z,2.40
2022-12-23T14:21:09.447Z,3.04
2022-12-23T14:24:00.839Z,3.58
2022-12-23T14:27:08.869Z,3.24
2022-12-23T14:29:50.768Z,2.91
2022-12-23T14:32:41.715Z,3.21
2022-12-23T14:35:19.202Z,3.15
2022-12-23T14:38:04.649Z,3.42
2022-12-23T14:40:36.847Z,2.98
2022-12-23T14:43:23.310Z,3.54
2022-12-23T14:46:03.513Z,3.53
2022-12-23T14:48:37.174Z,3.67
2022-12-23T14:51:24.850Z,3.84
2022-12-23T14:53:51.369Z,3.07
2022-12-23T14:56:22.182Z,3.41
2022-12-23T14:58:51.503Z,3.07
2022-12-23T15:01:34.264Z,2.92
2022-12-23T15:04:08.301Z,3.31
2022-12-23T15:06:38.317Z,2.92
2022-12-23T15:09:05.712Z,2.84
2022-12-23T15:11:33.766Z,2.79
2022-12-23T15:14:03.063Z,2.73
2022-12-23T15:16:34.802Z,2.81
2022-12-23T15:19:12.580Z,2.94
2022-12-23T15:21:39.201Z,3.10
2022-12-23T15:24:06.085Z,3.03
2022-12-23T15:26:32.739Z,3.33
2022-12-23T15:28:59.767Z,4.58
2022-12-23T15:31:38.356Z,3.97
2022-12-23T15:34:13.271Z,4.78
2022-12-23T15:36:43.917Z,4.09
2022-12-23T15:39:18.622Z,4.24
2022-12-23T15:41:45.795Z,4.07
2022-12-23T15:44:23.208Z,3.71
2022-12-23T15:46:50.722Z,3.90
2022-12-23T15:49:18.083Z,3.81
2022-12-23T15:52:07.178Z,3.73
2022-12-23T15:54:35.182Z,3.62
2022-12-23T15:57:02.092Z,3.55
2022-12-23T15:59:37.807Z,3.86
2022-12-23T16:02:58.319Z,3.57
2022-12-23T16:05:06.517Z,4.62
2022-12-23T16:07:38.048Z,3.81
2022-12-23T16:10:21.687Z,3.58
2022-12-23T16:12:51.438Z,3.50
2022-12-23T16:15:27.721Z,3.33
2022-12-23T16:18:18.946Z,3.59
2022-12-23T16:20:46.783Z,3.65
2022-12-23T16:23:13.429Z,3.18
2022-12-23T16:25:42.142Z,3.15
2022-12-23T16:28:19.148Z,3.49
2022-12-23T16:30:45.770Z,3.47
2022-12-23T16:33:30.590Z,3.66
2022-12-23T16:35:57.207Z,3.53
2022-12-23T16:38:25.018Z,3.30
2022-12-23T16:40:55.572Z,3.44
2022-12-23T16:43:23.257Z,3.68
2022-12-23T16:45:51.402Z,4.31
2022-12-23T16:48:40.137Z,3.85
2022-12-23T16:51:16.106Z,3.87
2022-12-23T16:53:42.768Z,3.88
2022-12-23T16:56:16.245Z,3.38
2022-12-23T16:58:43.103Z,3.40
2022-12-23T17:01:14.298Z,3.27
2022-12-23T17:03:41.062Z,4.80
2022-12-23T17:06:12.552Z,3.73
2022-12-23T17:08:39.487Z,4.46
2022-12-23T17:11:06.480Z,4.03
2022-12-23T17:13:33.170Z,3.77
2022-12-23T17:15:59.915Z,3.65
2022-12-23T17:18:26.607Z,3.43
2022-12-23T17:20:53.304Z,3.34
2022-12-23T17:23:27.865Z,3.56
2022-12-23T17:25:54.522Z,3.99
2022-12-23T17:28:21.675Z,3.77
2022-12-23T17:30:50.965Z,3.35
2022-12-23T17:33:18.129Z,3.64
2022-12-23T17:35:44.776Z,3.24
2022-12-23T17:38:14.672Z,3.38
2022-12-23T17:40:41.352Z,3.87
2022-12-23T17:43:16.948Z,3.50
2022-12-23T17:45:43.912Z,3.43
2022-12-23T17:48:16.299Z,3.59
2022-12-23T17:50:47.551Z,3.68
2022-12-23T17:53:17.834Z,3.69
2022-12-23T17:55:44.452Z,4.21
2022-12-23T17:58:11.102Z,4.39
2022-12-23T18:00:38.078Z,4.24
2022-12-23T18:03:07.009Z,4.56
2022-12-23T18:05:34.823Z,4.58
2022-12-23T18:08:01.714Z,4.99
2022-12-23T18:10:38.193Z,4.34
2022-12-23T18:13:06.646Z,3.61
2022-12-23T18:15:41.147Z,3.70
2022-12-23T18:18:24.412Z,2.89
2022-12-23T18:20:56.404Z,5.11
2022-12-23T18:23:25.171Z,4.11
2022-12-23T18:25:51.864Z,4.66
2022-12-23T18:28:18.466Z,4.17
2022-12-23T18:30:45.198Z,3.46
2022-12-23T18:33:12.350Z,3.74
2022-12-23T18:35:42.850Z,3.69
2022-12-23T18:38:09.522Z,3.93
2022-12-23T18:40:36.330Z,3.69
2022-12-23T18:43:02.935Z,4.82
2022-12-23T18:45:31.275Z,4.06
2022-12-23T18:47:58.126Z,3.91
2022-12-23T18:50:25.313Z,4.57
2022-12-23T18:52:51.955Z,4.46
2022-12-23T18:55:18.641Z,4.50
2022-12-23T18:57:45.741Z,4.39
2022-12-23T19:00:14.350Z,4.44
2022-12-23T19:02:41.066Z,4.67
2022-12-23T19:05:08.068Z,4.26
2022-12-23T19:07:34.728Z,4.29
2022-12-23T19:10:01.417Z,7.38
2022-12-23T19:12:28.051Z,5.29
2022-12-23T19:14:54.663Z,5.04
2022-12-23T19:17:21.268Z,4.27
2022-12-23T19:19:47.855Z,4.13
2022-12-23T19:22:14.499Z,4.00
2022-12-23T19:24:58.290Z,4.10
2022-12-23T19:27:27.663Z,4.31
2022-12-23T19:29:54.326Z,3.55
2022-12-23T19:32:21.025Z,4.34
2022-12-23T19:34:47.688Z,3.36
2022-12-23T19:37:14.288Z,2.95
2022-12-23T19:39:40.945Z,3.85
2022-12-23T19:42:08.043Z,3.33
2022-12-23T19:44:34.740Z,2.87
2022-12-23T19:47:01.705Z,3.02
2022-12-23T19:49:28.358Z,3.08
2022-12-23T19:51:55.019Z,3.69
2022-12-23T19:54:21.618Z,3.19
2022-12-23T19:56:49.972Z,3.81
2022-12-23T19:59:16.741Z,4.20
2022-12-23T20:01:43.429Z,2.98
2022-12-23T20:04:10.129Z,3.13
2022-12-23T20:06:36.891Z,2.93
2022-12-23T20:09:03.710Z,2.83
2022-12-23T20:11:32.865Z,2.79
2022-12-23T20:13:59.925Z,2.81
2022-12-23T20:16:26.994Z,2.86
2022-12-23T20:18:54.047Z,3.39
2022-12-23T20:21:20.648Z,3.46
2022-12-23T20:23:47.392Z,2.90
2022-12-23T20:26:14.169Z,2.97
2022-12-23T20:28:40.843Z,3.89
2022-12-23T20:31:09.719Z,2.73
2022-12-23T20:33:36.866Z,3.31
2022-12-23T20:36:07.588Z,3.48
2022-12-23T20:38:35.035Z,2.50
2022-12-23T20:41:01.664Z,2.36
2022-12-23T20:43:28.414Z,2.39
2022-12-23T20:45:55.051Z,2.42
2022-12-23T20:48:21.769Z,2.62
2022-12-23T20:50:48.675Z,2.40
2022-12-23T20:53:15.320Z,2.44
2022-12-23T20:55:41.971Z,3.20
2022-12-23T20:58:08.585Z,2.74
2022-12-23T21:00:35.219Z,3.47
2022-12-23T21:03:08.411Z,2.88
2022-12-23T21:05:36.929Z,2.98
2022-12-23T21:08:03.542Z,3.58
2022-12-23T21:10:30.190Z,2.97
2022-12-23T21:12:56.793Z,3.02
2022-12-23T21:15:23.389Z,3.32
2022-12-23T21:17:49.967Z,4.31
2022-12-23T21:20:16.604Z,3.89
2022-12-23T21:22:43.212Z,4.17
2022-12-23T21:25:10.361Z,4.10
2022-12-23T21:27:36.999Z,4.14
2022-12-23T21:30:03.871Z,4.25
2022-12-23T21:32:30.493Z,4.45
2022-12-23T21:34:57.128Z,3.91
2022-12-23T21:37:23.751Z,3.75
2022-12-23T21:39:50.353Z,4.00
2022-12-23T21:42:16.997Z,3.56
2022-12-23T21:44:43.599Z,3.91
2022-12-23T21:47:10.257Z,3.94
2022-12-23T21:49:36.854Z,3.57
2022-12-23T21:52:03.614Z,3.49
2022-12-23T21:54:30.224Z,3.38
2022-12-23T21:56:56.855Z,2.96
2022-12-23T21:59:23.505Z,3.33
2022-12-23T22:01:50.240Z,2.98
2022-12-23T22:04:16.911Z,2.96
2022-12-23T22:06:43.937Z,3.07
2022-12-23T22:09:15.165Z,2.80
2022-12-23T22:11:41.999Z,3.31
2022-12-23T22:14:09.999Z,3.34
2022-12-23T22:16:36.736Z,2.77
2022-12-23T22:19:04.072Z,3.11
2022-12-23T22:21:31.182Z,3.28
2022-12-23T22:23:57.867Z,2.92
2022-12-23T22:26:26.483Z,2.81
2022-12-23T22:28:54.617Z,2.64
2022-12-23T22:31:27.599Z,3.02
2022-12-23T22:33:54.288Z,3.00
2022-12-23T22:36:20.975Z,3.23
2022-12-23T22:38:55.112Z,2.97
2022-12-23T22:41:21.773Z,3.24
2022-12-23T22:43:48.386Z,3.20
2022-12-23T22:46:15.047Z,3.03
2022-12-23T22:48:41.756Z,3.13
2022-12-23T22:51:13.347Z,3.15
2022-12-23T22:53:39.985Z,3.01
2022-12-23T22:56:07.159Z,3.43
2022-12-23T22:58:33.793Z,3.25
2022-12-23T23:01:00.564Z,3.18
2022-12-23T23:03:27.210Z,3.35
2022-12-23T23:06:00.607Z,3.32
2022-12-23T23:08:27.912Z,3.23
2022-12-23T23:10:56.185Z,3.44
2022-12-23T23:13:23.073Z,3.14
2022-12-23T23:15:49.710Z,3.20
2022-12-23T23:18:16.440Z,3.21
2022-12-23T23:20:43.052Z,2.89
2022-12-23T23:23:09.677Z,2.80
2022-12-23T23:25:36.280Z,3.14
2022-12-23T23:28:02.872Z,3.07
2022-12-23T23:30:29.593Z,3.05
2022-12-23T23:32:56.242Z,3.04
2022-12-23T23:35:22.893Z,3.06
2022-12-23T23:37:49.512Z,3.23
2022-12-23T23:40:16.147Z,2.99
2022-12-23T23:42:42.797Z,2.88
2022-12-23T23:45:09.784Z,2.73
2022-12-23T23:47:36.424Z,2.82
2022-12-23T23:50:03.866Z,2.86
2022-12-23T23:52:30.588Z,2.66
2022-12-23T23:54:57.239Z,2.82
2022-12-23T23:57:23.876Z,2.78
2022-12-23T23:59:50.474Z,2.79
